createdAt,value
2022-10-16T00:01:19.791Z,79.16
2022-10-16T00:03:47.314Z,79.61
2022-10-16T00:06:14.675Z,80.61
2022-10-16T00:08:42.083Z,80.55
2022-10-16T00:11:15.123Z,80.30
2022-10-16T00:13:43.279Z,80.31
2022-10-16T00:16:13.905Z,79.62
2022-10-16T00:18:41.041Z,80.06
2022-10-16T00:21:16.473Z,79.83
2022-10-16T00:23:43.740Z,79.81
2022-10-16T00:26:16.142Z,80.26
2022-10-16T00:28:43.142Z,80.27
2022-10-16T00:31:12.221Z,79.68
2022-10-16T00:33:40.224Z,79.57
2022-10-16T00:36:08.627Z,79.69
2022-10-16T00:38:35.416Z,80.36
2022-10-16T00:41:02.168Z,79.89
2022-10-16T00:43:39.430Z,79.74
2022-10-16T00:46:21.637Z,80.48
2022-10-16T00:49:03.135Z,79.49
2022-10-16T00:51:39.775Z,78.90
2022-10-16T00:54:11.812Z,79.97
2022-10-16T00:56:38.633Z,80.26
2022-10-16T00:59:13.259Z,79.74
2022-10-16T01:01:40.170Z,79.44
2022-10-16T01:04:06.994Z,79.16
2022-10-16T01:06:53.947Z,80.26
2022-10-16T01:09:42.936Z,80.21
2022-10-16T01:12:09.647Z,80.26
2022-10-16T01:14:39.547Z,80.64
2022-10-16T01:17:16.997Z,80.95
2022-10-16T01:20:03.474Z,79.48
2022-10-16T01:22:44.008Z,79.60
2022-10-16T01:25:15.728Z,78.84
2022-10-16T01:27:44.792Z,80.25
2022-10-16T01:30:16.363Z,79.05
2022-10-16T01:32:46.906Z,77.90
2022-10-16T01:35:16.641Z,78.60
2022-10-16T01:38:20.388Z,78.42
2022-10-16T01:40:52.646Z,80.46
2022-10-16T01:43:24.090Z,80.33
2022-10-16T01:45:50.952Z,80.28
2022-10-16T01:48:22.197Z,80.84
2022-10-16T01:50:55.857Z,80.89
2022-10-16T01:53:23.386Z,80.65
2022-10-16T01:55:50.590Z,80.74
2022-10-16T01:58:17.357Z,80.95
2022-10-16T02:00:46.596Z,80.21
2022-10-16T02:03:15.278Z,80.87
2022-10-16T02:06:08.723Z,80.77
2022-10-16T02:08:36.551Z,80.13
2022-10-16T02:11:03.833Z,79.07
2022-10-16T02:13:34.729Z,79.09
2022-10-16T02:16:01.568Z,79.40
2022-10-16T02:18:31.838Z,78.65
2022-10-16T02:21:01.949Z,78.85
2022-10-16T02:23:48.885Z,79.32
2022-10-16T02:26:20.592Z,78.62
2022-10-16T02:28:49.614Z,81.04
2022-10-16T02:31:21.148Z,80.71
2022-10-16T02:33:48.139Z,80.77
2022-10-16T02:36:15.023Z,80.22
2022-10-16T02:38:42.252Z,79.56
2022-10-16T02:41:09.107Z,79.90
2022-10-16T02:43:35.919Z,78.18
2022-10-16T02:46:03.139Z,81.38
2022-10-16T02:48:29.844Z,79.87
2022-10-16T02:50:56.641Z,80.81
2022-10-16T02:53:23.444Z,79.71
2022-10-16T02:55:50.143Z,80.10
2022-10-16T02:58:16.931Z,80.75
2022-10-16T03:00:43.760Z,80.24
2022-10-16T03:03:10.562Z,80.61
2022-10-16T03:05:37.320Z,78.32
2022-10-16T03:08:04.172Z,79.99
2022-10-16T03:10:31.721Z,79.77
2022-10-16T03:12:58.471Z,80.11
2022-10-16T03:15:25.234Z,79.72
2022-10-16T03:17:52.076Z,80.16
2022-10-16T03:20:18.827Z,80.47
2022-10-16T03:22:45.592Z,80.95
2022-10-16T03:25:12.357Z,80.02
2022-10-16T03:27:39.086Z,79.68
2022-10-16T03:30:06.739Z,79.65
2022-10-16T03:35:00.591Z,81.01
2022-10-16T03:37:27.804Z,80.76
2022-10-16T03:39:54.759Z,81.21
2022-10-16T03:42:21.605Z,80.60
2022-10-16T03:44:48.342Z,81.36
2022-10-16T03:47:15.099Z,81.77
2022-10-16T03:49:41.905Z,81.25
2022-10-16T03:52:08.718Z,80.26
2022-10-16T03:54:35.484Z,80.99
2022-10-16T03:57:02.247Z,80.26
2022-10-16T03:59:28.996Z,81.95
2022-10-16T04:01:55.742Z,82.00
2022-10-16T04:04:22.575Z,81.95
2022-10-16T04:06:49.314Z,81.52
2022-10-16T04:09:16.040Z,81.55
2022-10-16T04:11:42.849Z,81.64
2022-10-16T04:14:09.908Z,81.91
2022-10-16T04:16:36.623Z,81.18
2022-10-16T04:19:04.113Z,81.99
2022-10-16T04:21:30.879Z,81.59
2022-10-16T04:23:57.610Z,82.21
2022-10-16T04:26:24.393Z,82.04
2022-10-16T04:28:51.146Z,82.09
2022-10-16T04:31:17.908Z,82.36
2022-10-16T04:33:44.965Z,82.45
2022-10-16T04:36:11.796Z,82.35
2022-10-16T04:38:38.656Z,81.67
2022-10-16T04:41:05.580Z,81.04
2022-10-16T04:43:32.449Z,81.62
2022-10-16T04:45:59.360Z,81.48
2022-10-16T04:48:26.361Z,81.21
2022-10-16T04:50:55.250Z,80.66
2022-10-16T04:53:22.321Z,80.19
2022-10-16T04:55:49.128Z,80.68
2022-10-16T04:58:15.863Z,81.35
2022-10-16T05:00:42.664Z,82.06
2022-10-16T05:03:09.988Z,82.50
2022-10-16T05:05:37.526Z,83.18
2022-10-16T05:08:05.034Z,81.93
2022-10-16T05:10:31.814Z,79.94
2022-10-16T05:12:58.735Z,81.56
2022-10-16T05:15:26.378Z,81.62
2022-10-16T05:17:55.055Z,81.30
2022-10-16T05:20:22.044Z,81.05
2022-10-16T05:22:49.206Z,82.28
2022-10-16T05:25:16.231Z,82.58
2022-10-16T05:27:43.040Z,82.54
2022-10-16T05:30:12.402Z,82.48
2022-10-16T05:32:39.676Z,81.39
2022-10-16T05:35:08.777Z,81.81
2022-10-16T05:37:38.567Z,81.67
2022-10-16T05:40:05.942Z,81.90
2022-10-16T05:42:32.664Z,81.65
2022-10-16T05:44:59.448Z,81.78
2022-10-16T05:47:26.328Z,82.12
2022-10-16T05:49:53.191Z,82.08
2022-10-16T05:52:20.111Z,81.56
2022-10-16T05:54:46.905Z,81.99
2022-10-16T05:57:13.696Z,81.60
2022-10-16T05:59:40.426Z,81.37
2022-10-16T06:02:07.162Z,81.48
2022-10-16T06:04:33.957Z,80.44
2022-10-16T06:07:01.593Z,80.08
2022-10-16T06:09:28.597Z,80.14
2022-10-16T06:11:55.956Z,80.06
2022-10-16T06:14:22.655Z,79.55
2022-10-16T06:16:49.409Z,79.12
2022-10-16T06:19:17.351Z,79.10
2022-10-16T06:21:44.420Z,78.54
2022-10-16T06:24:11.462Z,77.78
2022-10-16T06:26:38.548Z,77.43
2022-10-16T06:29:05.398Z,76.67
2022-10-16T06:31:34.495Z,77.18
2022-10-16T06:34:02.133Z,76.77
2022-10-16T06:36:29.065Z,77.37
2022-10-16T06:38:55.877Z,75.22
2022-10-16T06:41:23.815Z,74.95
2022-10-16T06:43:50.663Z,73.82
2022-10-16T06:46:21.038Z,73.50
2022-10-16T06:48:48.188Z,72.25
2022-10-16T06:51:20.527Z,72.25
2022-10-16T06:54:05.680Z,71.09
2022-10-16T06:56:33.718Z,71.09
2022-10-16T06:59:00.957Z,69.39
2022-10-16T07:01:28.177Z,68.75
2022-10-16T07:03:55.054Z,68.70
2022-10-16T07:06:23.778Z,67.46
2022-10-16T07:08:51.158Z,66.70
2022-10-16T07:11:20.011Z,65.82
2022-10-16T07:13:50.976Z,65.39
2022-10-16T07:16:23.408Z,64.39
2022-10-16T07:18:50.533Z,64.28
2022-10-16T07:21:20.472Z,62.53
2022-10-16T07:23:51.956Z,62.42
2022-10-16T07:26:18.937Z,62.38
2022-10-16T07:28:46.033Z,60.67
2022-10-16T07:31:14.553Z,59.04
2022-10-16T07:33:44.123Z,58.47
2022-10-16T07:36:15.858Z,56.97
2022-10-16T07:38:43.801Z,57.17
2022-10-16T07:41:13.590Z,55.16
2022-10-16T07:43:41.067Z,55.89
2022-10-16T07:46:08.023Z,54.61
2022-10-16T07:48:35.867Z,53.30
2022-10-16T07:51:05.119Z,53.46
2022-10-16T07:53:32.432Z,53.60
2022-10-16T07:56:04.092Z,51.58
2022-10-16T07:58:31.543Z,50.72
2022-10-16T08:00:58.827Z,49.38
2022-10-16T08:03:26.401Z,49.06
2022-10-16T08:05:53.347Z,49.93
2022-10-16T08:08:20.267Z,49.09
2022-10-16T08:10:47.236Z,47.55
2022-10-16T08:13:16.264Z,48.26
2022-10-16T08:15:44.175Z,47.71
2022-10-16T08:18:12.540Z,47.38
2022-10-16T08:20:39.735Z,46.36
2022-10-16T08:23:07.793Z,45.58
2022-10-16T08:25:38.332Z,44.71
2022-10-16T08:28:09.017Z,43.99
2022-10-16T08:30:35.803Z,43.79
2022-10-16T08:33:02.773Z,42.73
2022-10-16T08:35:29.487Z,42.12
2022-10-16T08:37:56.298Z,41.82
2022-10-16T08:40:29.570Z,40.80
2022-10-16T08:43:17.745Z,43.65
2022-10-16T08:45:50.409Z,40.35
2022-10-16T08:48:35.995Z,41.82
2022-10-16T08:51:04.184Z,38.45
2022-10-16T08:53:48.162Z,36.70
2022-10-16T08:56:15.064Z,34.03
2022-10-16T08:58:41.862Z,34.17
2022-10-16T09:01:17.738Z,32.66
2022-10-16T09:04:16.771Z,35.13
2022-10-16T09:06:59.295Z,34.62
2022-10-16T09:09:26.029Z,34.40
2022-10-16T09:12:11.155Z,34.89
2022-10-16T09:15:14.556Z,33.31
2022-10-16T09:18:00.155Z,34.04
2022-10-16T09:20:41.030Z,33.92
2022-10-16T09:23:19.316Z,31.86
2022-10-16T09:25:49.965Z,31.33
2022-10-16T09:28:18.373Z,30.70
2022-10-16T09:30:46.140Z,30.00
2022-10-16T09:33:13.244Z,30.56
2022-10-16T09:35:40.979Z,31.00
2022-10-16T09:38:08.265Z,29.97
2022-10-16T09:40:40.101Z,29.81
2022-10-16T09:43:25.540Z,29.04
2022-10-16T09:46:02.671Z,28.85
2022-10-16T09:48:44.661Z,29.47
2022-10-16T09:51:22.744Z,29.75
2022-10-16T09:53:49.886Z,28.60
2022-10-16T09:56:25.863Z,29.01
2022-10-16T09:58:54.640Z,27.50
2022-10-16T10:01:22.504Z,27.58
2022-10-16T10:03:50.613Z,28.37
2022-10-16T10:06:29.719Z,27.00
2022-10-16T10:08:57.975Z,28.00
2022-10-16T10:11:44.897Z,26.56
2022-10-16T10:14:31.743Z,26.47
2022-10-16T10:17:07.708Z,27.44
2022-10-16T10:19:40.572Z,26.37
2022-10-16T10:22:27.387Z,27.40
2022-10-16T10:26:25.565Z,26.41
2022-10-16T10:29:04.964Z,24.87
2022-10-16T10:31:40.022Z,23.90
2022-10-16T10:34:25.592Z,25.47
2022-10-16T10:37:05.402Z,26.20
2022-10-16T10:40:15.676Z,25.31
2022-10-16T10:42:54.810Z,25.24
2022-10-16T10:45:34.353Z,23.65
2022-10-16T10:48:24.938Z,24.58
2022-10-16T10:51:33.152Z,24.72
2022-10-16T10:54:17.909Z,23.95
2022-10-16T10:57:12.768Z,23.18
2022-10-16T11:00:24.073Z,22.96
2022-10-16T11:02:59.641Z,22.78
2022-10-16T11:05:40.331Z,22.85
2022-10-16T11:08:22.955Z,22.50
2022-10-16T11:10:54.163Z,21.16
2022-10-16T11:13:35.219Z,21.59
2022-10-16T11:16:08.673Z,22.02
2022-10-16T11:18:57.421Z,23.79
2022-10-16T11:21:30.213Z,21.63
2022-10-16T11:24:20.405Z,20.39
2022-10-16T11:26:47.950Z,20.96
2022-10-16T11:29:21.729Z,21.64
2022-10-16T11:31:51.689Z,19.25
2022-10-16T11:34:38.272Z,21.65
2022-10-16T11:37:15.414Z,20.25
2022-10-16T11:39:43.703Z,20.03
2022-10-16T11:42:35.315Z,18.90
2022-10-16T11:45:04.555Z,19.28
2022-10-16T11:48:05.796Z,19.94
2022-10-16T11:50:38.125Z,21.51
2022-10-16T11:53:08.825Z,21.56
2022-10-16T11:55:41.735Z,20.79
2022-10-16T11:58:30.156Z,19.75
2022-10-16T12:00:59.224Z,19.75
2022-10-16T12:03:35.656Z,20.36
2022-10-16T12:06:25.500Z,20.40
2022-10-16T12:08:53.568Z,20.83
2022-10-16T12:11:40.861Z,18.58
2022-10-16T12:14:08.324Z,20.21
2022-10-16T12:16:35.164Z,20.84
2022-10-16T12:19:21.258Z,19.22
2022-10-16T12:21:48.124Z,19.93
2022-10-16T12:24:33.704Z,19.02
2022-10-16T12:27:01.143Z,18.95
2022-10-16T12:29:55.810Z,19.56
2022-10-16T12:32:48.197Z,20.71
2022-10-16T12:35:27.996Z,21.25
2022-10-16T12:37:55.600Z,21.23
2022-10-16T12:40:29.957Z,19.41
2022-10-16T12:42:56.776Z,20.39
2022-10-16T12:45:34.635Z,20.42
2022-10-16T12:48:03.510Z,20.73
2022-10-16T12:50:38.675Z,20.48
2022-10-16T12:53:22.740Z,21.00
2022-10-16T12:56:11.148Z,21.12
2022-10-16T12:58:40.988Z,19.59
2022-10-16T13:01:23.091Z,20.03
2022-10-16T13:04:17.808Z,20.74
2022-10-16T13:07:03.332Z,20.46
2022-10-16T13:09:52.489Z,20.92
2022-10-16T13:12:36.786Z,20.23
2022-10-16T13:15:22.477Z,20.36
2022-10-16T13:18:00.839Z,20.84
2022-10-16T13:20:27.584Z,20.53
2022-10-16T13:23:17.072Z,20.93
2022-10-16T13:25:55.368Z,20.39
2022-10-16T13:28:24.187Z,19.96
2022-10-16T13:30:56.044Z,19.87
2022-10-16T13:33:38.372Z,19.60
2022-10-16T13:36:06.079Z,20.67
2022-10-16T13:38:34.914Z,21.76
2022-10-16T13:41:07.293Z,20.52
2022-10-16T13:43:47.048Z,19.56
2022-10-16T13:46:16.953Z,19.49
2022-10-16T13:48:44.449Z,20.29
2022-10-16T13:51:15.377Z,20.82
2022-10-16T13:53:42.829Z,20.44
2022-10-16T13:56:18.548Z,20.82
2022-10-16T13:58:45.865Z,20.58
2022-10-16T14:01:28.581Z,20.33
2022-10-16T14:04:16.944Z,20.75
2022-10-16T14:06:46.116Z,22.53
2022-10-16T14:09:21.916Z,22.33
2022-10-16T14:11:57.263Z,21.75
2022-10-16T14:14:24.697Z,21.78
2022-10-16T14:16:51.919Z,22.12
2022-10-16T14:19:25.527Z,22.03
2022-10-16T14:21:53.081Z,22.13
2022-10-16T14:24:33.004Z,22.36
2022-10-16T14:26:59.926Z,23.22
2022-10-16T14:29:28.616Z,23.46
2022-10-16T14:32:00.325Z,25.58
2022-10-16T14:34:40.938Z,25.97
2022-10-16T14:37:31.245Z,27.21
2022-10-16T14:39:58.335Z,29.06
2022-10-16T14:42:26.233Z,30.57
2022-10-16T14:44:54.819Z,30.89
2022-10-16T14:47:26.779Z,31.93
2022-10-16T14:49:59.955Z,33.39
2022-10-16T14:52:26.914Z,33.74
2022-10-16T14:54:55.778Z,34.69
2022-10-16T14:57:25.344Z,35.75
2022-10-16T14:59:52.669Z,36.00
2022-10-16T15:02:23.346Z,37.62
2022-10-16T15:04:50.361Z,38.70
2022-10-16T15:07:17.269Z,39.40
2022-10-16T15:09:48.158Z,40.51
2022-10-16T15:12:17.417Z,41.36
2022-10-16T15:14:44.386Z,42.03
2022-10-16T15:17:16.393Z,43.38
2022-10-16T15:19:45.484Z,43.21
2022-10-16T15:22:13.438Z,44.19
2022-10-16T15:24:40.569Z,44.72
2022-10-16T15:27:07.464Z,45.16
2022-10-16T15:29:34.239Z,45.52
2022-10-16T15:32:00.936Z,45.79
2022-10-16T15:34:27.695Z,45.48
2022-10-16T15:36:56.222Z,45.09
2022-10-16T15:39:23.019Z,45.41
2022-10-16T15:41:54.275Z,46.15
2022-10-16T15:44:23.957Z,46.43
2022-10-16T15:46:50.696Z,47.12
2022-10-16T15:49:17.591Z,47.33
2022-10-16T15:51:44.452Z,47.55
2022-10-16T15:54:11.256Z,48.02
2022-10-16T15:56:38.386Z,47.99
2022-10-16T15:59:06.180Z,48.93
2022-10-16T16:01:35.051Z,49.60
2022-10-16T16:04:07.499Z,49.63
2022-10-16T16:06:45.748Z,50.33
2022-10-16T16:09:13.977Z,50.64
2022-10-16T16:11:40.711Z,50.31
2022-10-16T16:14:08.152Z,51.46
2022-10-16T16:16:38.486Z,51.18
2022-10-16T16:19:11.458Z,50.84
2022-10-16T16:21:39.418Z,50.96
2022-10-16T16:24:09.381Z,51.20
2022-10-16T16:26:40.323Z,52.05
2022-10-16T16:29:07.800Z,52.26
2022-10-16T16:31:35.845Z,52.27
2022-10-16T16:34:04.074Z,52.30
2022-10-16T16:36:30.944Z,51.83
2022-10-16T16:38:58.618Z,52.79
2022-10-16T16:41:28.421Z,52.89
2022-10-16T16:43:56.047Z,52.43
2022-10-16T16:46:23.197Z,53.76
2022-10-16T16:48:54.538Z,53.29
2022-10-16T16:51:21.410Z,53.09
2022-10-16T16:53:50.597Z,53.03
2022-10-16T16:56:18.292Z,53.04
2022-10-16T16:58:49.475Z,53.81
2022-10-16T17:01:21.285Z,53.72
2022-10-16T17:03:50.929Z,54.39
2022-10-16T17:06:20.791Z,54.42
2022-10-16T17:08:48.836Z,55.22
2022-10-16T17:11:24.159Z,54.80
2022-10-16T17:13:55.637Z,55.09
2022-10-16T17:16:26.188Z,55.00
2022-10-16T17:18:54.107Z,55.15
2022-10-16T17:21:21.540Z,56.13
2022-10-16T17:23:48.384Z,55.37
2022-10-16T17:26:17.098Z,55.37
2022-10-16T17:28:44.583Z,55.68
2022-10-16T17:31:23.515Z,56.87
2022-10-16T17:33:52.509Z,55.95
2022-10-16T17:36:21.039Z,56.75
2022-10-16T17:38:47.751Z,56.82
2022-10-16T17:41:17.701Z,57.02
2022-10-16T17:43:45.311Z,57.48
2022-10-16T17:46:12.913Z,56.82
2022-10-16T17:48:45.517Z,57.95
2022-10-16T17:51:13.956Z,58.37
2022-10-16T17:53:40.822Z,59.36
2022-10-16T17:56:10.371Z,58.30
2022-10-16T17:58:37.531Z,58.95
2022-10-16T18:01:38.209Z,56.97
2022-10-16T18:04:07.290Z,56.64
2022-10-16T18:06:34.705Z,55.01
2022-10-16T18:09:02.180Z,54.65
2022-10-16T18:11:29.331Z,53.88
2022-10-16T18:13:57.304Z,53.40
2022-10-16T18:16:24.951Z,53.30
2022-10-16T18:18:52.165Z,53.12
2022-10-16T18:21:20.206Z,54.08
2022-10-16T18:23:51.012Z,54.41
2022-10-16T18:26:18.875Z,53.75
2022-10-16T18:28:45.773Z,54.76
2022-10-16T18:31:14.504Z,55.55
2022-10-16T18:33:47.905Z,56.39
2022-10-16T18:36:15.796Z,56.23
2022-10-16T18:38:42.975Z,56.27
2022-10-16T18:41:09.970Z,56.52
2022-10-16T18:43:38.136Z,56.65
2022-10-16T18:46:06.351Z,58.56
2022-10-16T18:48:33.512Z,58.07
2022-10-16T18:51:20.965Z,57.51
2022-10-16T18:53:50.300Z,58.18
2022-10-16T18:56:18.697Z,58.10
2022-10-16T18:58:48.361Z,58.94
2022-10-16T19:01:20.852Z,59.33
2022-10-16T19:03:48.842Z,59.60
2022-10-16T19:06:17.049Z,60.25
2022-10-16T19:08:44.200Z,60.23
2022-10-16T19:11:12.081Z,61.29
2022-10-16T19:13:38.902Z,60.89
2022-10-16T19:16:19.721Z,61.44
2022-10-16T19:18:47.886Z,62.23
2022-10-16T19:21:15.345Z,62.82
2022-10-16T19:23:42.416Z,63.02
2022-10-16T19:26:12.084Z,63.64
2022-10-16T19:28:39.205Z,63.79
2022-10-16T19:31:08.431Z,64.21
2022-10-16T19:33:35.459Z,64.65
2022-10-16T19:36:09.349Z,64.96
2022-10-16T19:38:36.152Z,66.06
2022-10-16T19:41:10.598Z,66.24
2022-10-16T19:43:37.462Z,66.59
2022-10-16T19:46:09.310Z,66.90
2022-10-16T19:48:36.225Z,67.22
2022-10-16T19:51:04.394Z,66.90
2022-10-16T19:53:31.721Z,67.09
2022-10-16T19:55:58.955Z,67.54
2022-10-16T19:58:26.397Z,67.18
2022-10-16T20:00:54.744Z,67.96
2022-10-16T20:03:21.530Z,67.46
2022-10-16T20:05:55.277Z,67.66
2022-10-16T20:08:22.704Z,67.78
2022-10-16T20:10:54.021Z,68.57
2022-10-16T20:13:22.142Z,68.21
2022-10-16T20:15:49.209Z,69.51
2022-10-16T20:18:16.792Z,69.33
2022-10-16T20:20:46.872Z,69.18
2022-10-16T20:23:13.665Z,69.42
2022-10-16T20:25:42.352Z,69.53
2022-10-16T20:28:09.902Z,69.80
2022-10-16T20:30:41.968Z,69.47
2022-10-16T20:33:09.387Z,69.37
2022-10-16T20:35:41.611Z,69.90
2022-10-16T20:38:08.753Z,70.54
2022-10-16T20:40:36.916Z,70.90
2022-10-16T20:43:04.188Z,70.31
2022-10-16T20:45:39.832Z,71.20
2022-10-16T20:48:12.445Z,71.28
2022-10-16T20:50:43.297Z,71.66
2022-10-16T20:53:10.067Z,70.90
2022-10-16T20:55:37.872Z,71.75
2022-10-16T20:58:05.500Z,71.51
2022-10-16T21:00:32.605Z,71.81
2022-10-16T21:02:59.355Z,72.37
2022-10-16T21:05:30.002Z,71.91
2022-10-16T21:07:58.181Z,72.04
2022-10-16T21:10:24.997Z,71.75
2022-10-16T21:12:55.448Z,72.00
2022-10-16T21:15:22.598Z,73.09
2022-10-16T21:17:49.793Z,72.96
2022-10-16T21:20:16.841Z,73.26
2022-10-16T21:22:43.762Z,71.85
2022-10-16T21:25:10.607Z,71.40
2022-10-16T21:27:41.011Z,72.89
2022-10-16T21:30:09.570Z,71.95
2022-10-16T21:32:40.503Z,71.76
2022-10-16T21:35:07.999Z,71.84
2022-10-16T21:37:35.207Z,71.89
2022-10-16T21:40:02.223Z,72.17
2022-10-16T21:42:29.373Z,72.14
2022-10-16T21:44:56.620Z,72.02
2022-10-16T21:47:23.545Z,72.03
2022-10-16T21:49:50.429Z,72.84
2022-10-16T21:52:17.239Z,72.29
2022-10-16T21:54:44.052Z,72.93
2022-10-16T21:57:10.807Z,73.00
2022-10-16T21:59:37.552Z,73.32
2022-10-16T22:02:04.282Z,74.26
2022-10-16T22:04:31.471Z,74.23
2022-10-16T22:06:58.419Z,73.92
2022-10-16T22:09:25.214Z,74.14
2022-10-16T22:11:51.988Z,74.64
2022-10-16T22:14:20.668Z,74.17
2022-10-16T22:16:48.257Z,74.87
2022-10-16T22:19:16.397Z,75.21
2022-10-16T22:21:43.853Z,75.33
2022-10-16T22:24:10.651Z,74.96
2022-10-16T22:26:38.455Z,75.11
2022-10-16T22:29:05.720Z,75.13
2022-10-16T22:31:33.139Z,74.51
2022-10-16T22:34:01.759Z,75.21
2022-10-16T22:36:29.491Z,75.56
2022-10-16T22:38:56.307Z,75.43
2022-10-16T22:41:24.695Z,74.89
2022-10-16T22:43:51.920Z,75.31
2022-10-16T22:46:27.858Z,75.20
2022-10-16T22:48:56.032Z,76.24
2022-10-16T22:51:24.521Z,76.13
2022-10-16T22:53:51.665Z,76.06
2022-10-16T22:56:20.331Z,75.69
2022-10-16T22:58:47.327Z,75.52
2022-10-16T23:01:20.565Z,75.86
2022-10-16T23:03:47.336Z,76.16
2022-10-16T23:06:14.076Z,75.36
2022-10-16T23:08:44.259Z,75.60
2022-10-16T23:11:12.977Z,75.70
2022-10-16T23:13:40.211Z,76.48
2022-10-16T23:16:07.405Z,76.25
2022-10-16T23:18:34.675Z,76.56
2022-10-16T23:21:06.723Z,76.82
2022-10-16T23:23:35.624Z,78.43
2022-10-16T23:26:02.588Z,78.17
2022-10-16T23:28:29.412Z,78.68
2022-10-16T23:30:56.225Z,77.63
2022-10-16T23:33:22.993Z,77.45
2022-10-16T23:35:49.763Z,77.91
2022-10-16T23:38:16.510Z,78.32
2022-10-16T23:40:43.282Z,78.50
2022-10-16T23:43:10.042Z,77.65
2022-10-16T23:45:36.811Z,77.77
2022-10-16T23:48:03.622Z,78.33
2022-10-16T23:50:30.801Z,78.96
2022-10-16T23:52:57.586Z,79.49
2022-10-16T23:55:24.379Z,79.58
2022-10-16T23:57:51.223Z,79.77
